Home   Weather   Moldova   Chișinău   Past weeks
Flag for Moldova

Past Weather in Chișinău, Moldova — Yesterday and Last 2 Weeks

Currently: 93 °F. Passing clouds. (Weather station: Chisinau International Airport, Moldova). See more current weather

Past Weather in Chișinău — Graph

°F

Chișinău Temperature Yesterday

Maximum temperature yesterday: 93 °F (at 4:30 pm)
Minimum temperature yesterday: 68 °F (at 5:00 am)
Average temperature yesterday: 81 °F

High & Low Weather Summary for the Past Weeks

 TemperatureHumidityPressure
High93 °F (Jun 28, 4:30 pm)88% (Jun 17, 11:00 pm)30.15 "Hg (Jun 17, 11:00 pm)
Low48 °F (Jun 15, 6:00 am)22% (Jun 20, 5:30 pm)29.59 "Hg (Jun 21, 2:30 pm)
Average71 °F55%29.95 "Hg
* Reported Jun 14 3:00 pm — Jun 29 3:00 pm, Chișinău. Weather by CustomWeather, © 2022

Note: Actual official high and low records may vary slightly from our data, if they occured in-between our weather recording intervals... More about our weather records

Chișinău Weather History for the Previous 24 Hours

Scroll right to see more
 ConditionsComfort  
Time TempWeatherWind HumidityBarometerVisibility
3:00 pm
Wed, Jun 29
93 °FPassing clouds.9 mph34%29.98 "HgN/A
2:00 pm93 °FPassing clouds.12 mph34%29.98 "HgN/A
1:00 pm91 °FPassing clouds.12 mph38%29.98 "HgN/A
12:30 pm90 °FPassing clouds.10 mph41%30.01 "HgN/A
12:00 pm91 °FPassing clouds.10 mph41%30.01 "HgN/A
11:30 am91 °FPassing clouds.15 mph38%30.01 "HgN/A
11:00 am90 °FSunny.15 mph41%30.01 "Hg10 mi
10:30 am88 °FSunny.10 mph43%30.01 "Hg10 mi
10:00 am88 °FSunny.9 mph43%30.01 "Hg10 mi
9:30 am84 °FPassing clouds.8 mph48%30.01 "HgN/A
9:00 am81 °FSunny.8 mph54%30.01 "Hg10 mi
8:00 am75 °FSunny.7 mph57%30.01 "Hg10 mi
7:30 am73 °FSunny.7 mph61%30.01 "Hg10 mi
7:00 am70 °FSunny.3 mph64%30.01 "Hg10 mi
6:30 am68 °FSunny.1 mph69%30.01 "Hg10 mi
6:00 am64 °FSunny.3 mph73%30.01 "Hg10 mi
5:30 am66 °FSunny.2 mph73%30.04 "Hg10 mi
5:00 am66 °FClear.No wind73%30.04 "Hg10 mi
4:30 am64 °FClear.3 mph73%30.04 "Hg10 mi
4:00 am63 °FClear.3 mph77%30.01 "Hg10 mi
2:30 am64 °FClear.No wind73%30.01 "Hg10 mi
2:00 am64 °FClear.5 mph64%30.01 "Hg10 mi
1:00 am72 °FClear.2 mph57%30.01 "Hg10 mi
12:00 am72 °FClear.1 mph50%30.01 "Hg10 mi
11:00 pm
Tue, Jun 28
77 °FClear.2 mph39%30.04 "Hg10 mi
10:30 pm79 °FClear.5 mph37%30.04 "Hg10 mi
10:00 pm81 °FClear.3 mph37%30.01 "Hg10 mi
9:30 pm82 °FClear.7 mph35%30.01 "Hg10 mi
9:00 pm84 °FSunny.7 mph33%29.98 "Hg10 mi
8:00 pm90 °FSunny.12 mph27%29.98 "Hg10 mi
7:30 pm90 °FPassing clouds.12 mph27%29.98 "HgN/A
7:00 pm91 °FSunny.13 mph26%29.98 "Hg10 mi
6:00 pm91 °FPassing clouds.13 mph24%29.98 "HgN/A
5:30 pm91 °FPassing clouds.14 mph24%29.98 "HgN/A
5:00 pm91 °FPassing clouds.12 mph24%29.98 "HgN/A
Weather by CustomWeather, © 2022

See weather overview